createdAt,value
2022-12-11T00:00:07.020Z,51.25
2022-12-11T00:02:33.851Z,64.50
2022-12-11T00:05:00.481Z,44.25
2022-12-11T00:07:27.170Z,61.75
2022-12-11T00:09:53.859Z,54.75
2022-12-11T00:12:20.329Z,47.50
2022-12-11T00:14:47.113Z,61.25
2022-12-11T00:17:13.521Z,46.75
2022-12-11T00:19:39.958Z,54.00
2022-12-11T00:22:07.641Z,55.33
2022-12-11T00:24:34.204Z,70.25
2022-12-11T00:35:21.694Z,67.00
2022-12-11T00:37:48.213Z,69.25
2022-12-11T00:40:14.905Z,65.75
2022-12-11T00:42:41.491Z,59.50
2022-12-11T00:45:08.362Z,54.25
2022-12-11T00:47:35.176Z,54.00
2022-12-11T00:50:01.828Z,52.25
2022-12-11T00:52:28.507Z,56.75
2022-12-11T00:54:55.116Z,45.25
2022-12-11T00:57:21.914Z,43.50
2022-12-11T00:59:48.573Z,53.75
2022-12-11T01:02:15.201Z,48.00
2022-12-11T01:07:31.846Z,63.75
2022-12-11T01:10:17.238Z,45.00
2022-12-11T01:12:43.746Z,44.50
2022-12-11T01:15:12.180Z,54.75
2022-12-11T01:17:38.994Z,41.50
2022-12-11T01:20:05.949Z,45.25
2022-12-11T01:22:32.591Z,49.25
2022-12-11T01:24:59.449Z,53.00
2022-12-11T01:27:26.257Z,57.00
2022-12-11T01:29:52.741Z,53.50
2022-12-11T01:32:19.396Z,49.00
2022-12-11T01:34:45.964Z,58.25
2022-12-11T01:37:12.501Z,53.00
2022-12-11T01:39:39.103Z,51.00
2022-12-11T01:42:10.376Z,52.75
2022-12-11T01:44:37.436Z,63.50
2022-12-11T01:47:03.939Z,55.25
2022-12-11T01:49:30.379Z,72.75
2022-12-11T01:52:01.128Z,56.25
2022-12-11T01:54:28.589Z,67.75
2022-12-11T01:56:58.764Z,70.00
2022-12-11T01:59:27.189Z,57.25
2022-12-11T02:02:03.212Z,47.50
2022-12-11T02:04:31.109Z,68.50
2022-12-11T02:06:57.709Z,62.00
2022-12-11T02:09:28.236Z,61.75
2022-12-11T02:12:12.136Z,64.00
2022-12-11T02:14:41.670Z,48.75
2022-12-11T02:17:21.760Z,60.25
2022-12-11T02:20:06.798Z,57.50
2022-12-11T02:22:52.214Z,66.00
2022-12-11T02:25:26.056Z,51.25
2022-12-11T02:28:17.220Z,59.50
2022-12-11T02:30:47.542Z,47.00
2022-12-11T02:33:15.641Z,49.50
2022-12-11T02:35:43.030Z,46.25
2022-12-11T02:38:15.510Z,53.25
2022-12-11T02:40:42.897Z,47.00
2022-12-11T02:43:11.429Z,47.25
2022-12-11T02:51:17.133Z,49.25
2022-12-11T02:53:44.636Z,55.25
2022-12-11T02:56:21.249Z,55.75
2022-12-11T02:58:58.691Z,55.00
2022-12-11T03:01:26.716Z,55.50
2022-12-11T03:03:54.494Z,54.75
2022-12-11T03:06:25.002Z,53.00
2022-12-11T03:08:52.216Z,44.25
2022-12-11T03:11:18.783Z,46.25
2022-12-11T03:13:48.898Z,43.25
2022-12-11T03:16:34.570Z,50.50
2022-12-11T03:19:19.847Z,49.75
2022-12-11T03:21:56.666Z,42.50
2022-12-11T03:24:29.651Z,49.00
2022-12-11T03:27:01.096Z,44.75
2022-12-11T03:29:36.420Z,44.75
2022-12-11T03:32:07.597Z,56.75
2022-12-11T03:34:41.894Z,49.75
2022-12-11T03:37:09.096Z,63.00
2022-12-11T03:39:42.004Z,48.50
2022-12-11T03:42:10.282Z,49.75
2022-12-11T03:44:37.140Z,38.75
2022-12-11T03:47:06.290Z,52.75
2022-12-11T03:49:37.893Z,46.00
2022-12-11T03:52:09.425Z,46.75
2022-12-11T03:54:36.445Z,66.25
2022-12-11T03:57:04.599Z,57.00
2022-12-11T03:59:31.315Z,51.75
2022-12-11T04:01:58.317Z,34.00
2022-12-11T04:04:28.366Z,44.25
2022-12-11T04:06:55.180Z,42.50
2022-12-11T04:09:21.755Z,38.75
2022-12-11T04:11:49.616Z,47.00
2022-12-11T04:14:35.028Z,36.00
2022-12-11T04:17:01.798Z,42.75
2022-12-11T04:19:46.979Z,34.25
2022-12-11T04:22:33.202Z,42.75
2022-12-11T04:25:00.387Z,42.75
2022-12-11T04:27:48.365Z,28.50
2022-12-11T04:30:16.819Z,44.50
2022-12-11T04:32:43.573Z,36.25
2022-12-11T04:35:10.637Z,43.00
2022-12-11T04:37:37.808Z,37.75
2022-12-11T04:40:06.119Z,28.50
2022-12-11T04:42:32.758Z,47.25
2022-12-11T04:44:59.396Z,41.25
2022-12-11T05:01:23.684Z,34.25
2022-12-11T05:12:09.692Z,46.50
2022-12-11T05:14:36.585Z,37.50
2022-12-11T05:17:03.401Z,30.25
2022-12-11T05:19:30.197Z,27.75
2022-12-11T05:21:56.859Z,35.25
2022-12-11T05:27:04.243Z,40.75
2022-12-11T05:29:30.792Z,32.00
2022-12-11T05:31:57.395Z,31.25
2022-12-11T05:34:24.257Z,33.00
2022-12-11T05:36:51.249Z,32.50
2022-12-11T05:39:17.760Z,38.75
2022-12-11T05:41:44.478Z,44.00
2022-12-11T05:44:14.199Z,42.00
2022-12-11T05:46:41.014Z,25.50
2022-12-11T05:49:08.246Z,38.00
2022-12-11T05:51:35.046Z,36.25
2022-12-11T05:54:01.930Z,40.75
2022-12-11T05:56:29.817Z,35.00
2022-12-11T05:58:56.946Z,38.00
2022-12-11T06:01:43.274Z,35.50
2022-12-11T06:04:11.146Z,33.00
2022-12-11T06:06:38.277Z,25.00
2022-12-11T06:09:05.496Z,30.25
2022-12-11T06:11:33.037Z,21.50
2022-12-11T06:14:00.668Z,30.75
2022-12-11T06:16:27.207Z,29.00
2022-12-11T06:18:58.002Z,38.00
2022-12-11T06:21:30.054Z,31.50
2022-12-11T06:23:57.787Z,27.25
2022-12-11T06:26:24.868Z,21.00
2022-12-11T06:28:51.947Z,35.50
2022-12-11T06:31:19.123Z,26.50
2022-12-11T06:33:46.293Z,25.00
2022-12-11T06:36:17.770Z,35.00
2022-12-11T06:41:26.018Z,41.00
2022-12-11T06:43:52.817Z,28.75
2022-12-11T06:46:20.211Z,24.50
2022-12-11T06:48:47.323Z,32.50
2022-12-11T06:51:15.408Z,32.50
2022-12-11T06:53:42.379Z,26.50
2022-12-11T06:56:10.147Z,25.00
2022-12-11T06:58:37.502Z,32.50
2022-12-11T07:01:04.871Z,40.25
2022-12-11T07:03:31.864Z,36.50
2022-12-11T07:06:02.504Z,28.75
2022-12-11T07:08:29.617Z,23.00
2022-12-11T07:11:02.322Z,27.50
2022-12-11T07:16:05.909Z,32.50
2022-12-11T07:18:32.799Z,27.75
2022-12-11T07:21:00.597Z,32.75
2022-12-11T07:28:43.728Z,43.25
2022-12-11T07:39:09.277Z,21.00
2022-12-11T07:41:36.173Z,28.00
2022-12-11T07:44:02.954Z,23.50
2022-12-11T07:46:30.981Z,29.50
2022-12-11T07:48:57.456Z,16.00
2022-12-11T07:51:28.403Z,20.00
2022-12-11T07:53:59.074Z,27.25
2022-12-11T07:56:26.168Z,23.25
2022-12-11T07:58:53.206Z,16.50
2022-12-11T08:01:26.067Z,28.50
2022-12-11T08:03:55.244Z,22.25
2022-12-11T08:06:25.771Z,25.75
2022-12-11T08:08:53.497Z,32.00
2022-12-11T08:14:02.476Z,52.00
2022-12-11T08:16:29.510Z,39.25
2022-12-11T08:21:42.788Z,22.25
2022-12-11T08:24:09.789Z,34.00
2022-12-11T08:26:36.626Z,35.00
2022-12-11T08:29:03.455Z,36.25
2022-12-11T08:31:30.686Z,46.75
2022-12-11T08:33:58.247Z,23.00
2022-12-11T08:36:25.791Z,41.75
2022-12-11T08:38:53.738Z,39.00
2022-12-11T08:41:24.962Z,37.00
2022-12-11T08:44:17.251Z,33.75
2022-12-11T08:46:43.706Z,30.50
2022-12-11T08:49:10.392Z,27.25
2022-12-11T08:51:37.114Z,38.50
2022-12-11T08:54:03.720Z,38.25
2022-12-11T08:56:30.519Z,23.50
2022-12-11T08:58:59.869Z,32.00
2022-12-11T09:01:27.013Z,34.50
2022-12-11T09:03:54.541Z,42.50
2022-12-11T09:06:22.101Z,31.00
2022-12-11T09:08:52.649Z,45.25
2022-12-11T09:11:21.660Z,48.00
2022-12-11T09:13:48.310Z,36.25
2022-12-11T09:16:16.074Z,56.75
2022-12-11T09:18:42.522Z,39.50
2022-12-11T09:21:11.664Z,45.25
2022-12-11T09:23:38.036Z,48.25
2022-12-11T09:26:06.137Z,51.00
2022-12-11T09:28:33.064Z,41.00
2022-12-11T09:30:59.865Z,37.00
2022-12-11T09:33:26.681Z,29.00
2022-12-11T09:36:03.819Z,36.50
2022-12-11T09:38:30.340Z,25.75
2022-12-11T09:40:56.914Z,26.25
2022-12-11T09:43:45.121Z,46.25
2022-12-11T09:46:12.794Z,54.00
2022-12-11T09:48:41.747Z,35.50
2022-12-11T09:51:28.408Z,53.75
2022-12-11T09:53:56.753Z,49.00
2022-12-11T09:56:32.248Z,33.50
2022-12-11T09:59:07.826Z,39.50
2022-12-11T10:01:52.176Z,37.75
2022-12-11T10:04:18.601Z,91.50
2022-12-11T10:06:47.988Z,51.00
2022-12-11T10:09:24.384Z,65.75
2022-12-11T10:11:59.057Z,69.75
2022-12-11T10:14:32.014Z,18.75
2022-12-11T10:17:10.837Z,49.50
2022-12-11T10:19:37.374Z,55.25
2022-12-11T10:22:03.933Z,76.25
2022-12-11T10:25:10.103Z,35.50
2022-12-11T10:27:31.492Z,52.00
2022-12-11T10:30:18.354Z,40.75
2022-12-11T10:32:52.811Z,53.50
2022-12-11T10:35:38.221Z,64.25
2022-12-11T10:38:11.953Z,68.50
2022-12-11T10:40:40.095Z,44.50
2022-12-11T10:43:06.567Z,50.25
2022-12-11T10:45:32.930Z,63.25
2022-12-11T10:48:03.649Z,60.75
2022-12-11T10:50:30.048Z,43.25
2022-12-11T10:52:57.369Z,71.25
2022-12-11T10:55:44.955Z,65.50
2022-12-11T10:58:19.661Z,52.75
2022-12-11T11:00:46.352Z,99.25
2022-12-11T11:03:26.691Z,52.50
2022-12-11T11:06:07.276Z,62.75
2022-12-11T11:08:42.168Z,63.25
2022-12-11T11:11:19.990Z,55.50
2022-12-11T11:13:46.608Z,63.25
2022-12-11T11:16:13.791Z,62.50
2022-12-11T11:18:41.190Z,59.25
2022-12-11T11:21:16.100Z,49.50
2022-12-11T11:23:46.304Z,50.00
2022-12-11T11:26:15.977Z,68.75
2022-12-11T11:28:47.612Z,50.50
2022-12-11T11:31:15.164Z,52.75
2022-12-11T11:34:03.290Z,52.00
2022-12-11T11:36:31.466Z,65.50
2022-12-11T11:39:03.766Z,69.25
2022-12-11T11:41:39.518Z,58.25
2022-12-11T11:44:07.387Z,67.00
2022-12-11T11:46:36.991Z,71.25
2022-12-11T11:49:13.423Z,72.25
2022-12-11T11:51:41.812Z,53.25
2022-12-11T11:54:15.329Z,65.00
2022-12-11T11:56:42.158Z,85.00
2022-12-11T11:59:15.677Z,64.75
2022-12-11T12:01:43.165Z,61.50
2022-12-11T12:04:09.805Z,57.75
2022-12-11T12:06:59.472Z,72.75
2022-12-11T12:09:25.976Z,97.00
2022-12-11T12:11:56.288Z,98.75
2022-12-11T12:17:31.588Z,80.75
2022-12-11T12:20:09.534Z,48.75
2022-12-11T12:22:45.356Z,51.75
2022-12-11T12:25:24.153Z,48.50
2022-12-11T12:27:52.436Z,36.00
2022-12-11T12:30:22.983Z,43.75
2022-12-11T12:33:02.365Z,48.25
2022-12-11T12:35:37.108Z,42.00
2022-12-11T12:38:03.458Z,45.50
2022-12-11T12:40:33.058Z,47.75
2022-12-11T12:43:11.709Z,37.75
2022-12-11T12:45:50.253Z,46.00
2022-12-11T12:48:17.228Z,46.50
2022-12-11T12:50:46.289Z,44.50
2022-12-11T12:53:20.976Z,49.75
2022-12-11T12:55:48.166Z,54.75
2022-12-11T12:58:27.081Z,51.25
2022-12-11T13:00:53.851Z,69.50
2022-12-11T13:03:22.261Z,53.25
2022-12-11T13:06:03.559Z,42.75
2022-12-11T13:08:35.027Z,48.25
2022-12-11T13:11:07.372Z,48.00
2022-12-11T13:13:33.805Z,40.25
2022-12-11T13:16:07.853Z,57.50
2022-12-11T13:18:36.084Z,65.25
2022-12-11T13:21:03.856Z,59.50
2022-12-11T13:23:31.797Z,49.00
2022-12-11T13:25:59.947Z,36.50
2022-12-11T13:28:55.776Z,42.00
2022-12-11T13:31:23.070Z,43.75
2022-12-11T13:33:51.046Z,18.50
2022-12-11T13:36:22.773Z,58.00
2022-12-11T13:38:53.614Z,46.25
2022-12-11T13:41:20.861Z,52.50
2022-12-11T13:43:48.933Z,66.00
2022-12-11T13:46:19.573Z,57.00
2022-12-11T13:48:47.844Z,42.75
2022-12-11T13:51:18.996Z,46.75
2022-12-11T13:53:45.518Z,33.00
2022-12-11T13:56:19.889Z,45.75
2022-12-11T13:58:47.143Z,61.75
2022-12-11T14:01:16.525Z,79.00
2022-12-11T14:03:49.125Z,66.50
2022-12-11T14:06:18.747Z,54.50
2022-12-11T14:08:48.336Z,61.75
2022-12-11T14:11:22.676Z,64.25
2022-12-11T14:13:50.227Z,51.25
2022-12-11T21:18:48.463Z,45.00
2022-12-11T21:21:15.869Z,60.25
2022-12-11T21:23:42.914Z,57.75
2022-12-11T21:26:10.335Z,66.50
2022-12-11T21:28:36.966Z,67.00
2022-12-11T21:31:05.536Z,66.50
2022-12-11T21:41:32.901Z,60.00
2022-12-11T21:45:25.969Z,66.00
2022-12-11T21:46:46.477Z,54.25
2022-12-11T21:49:12.955Z,48.25
2022-12-11T21:51:45.311Z,77.00
2022-12-11T21:54:14.465Z,41.00
2022-12-11T21:56:41.262Z,57.25
2022-12-11T21:59:07.802Z,63.00
2022-12-11T22:01:38.922Z,67.25
2022-12-11T22:04:05.612Z,55.75
2022-12-11T22:06:32.533Z,51.25
2022-12-11T22:08:58.968Z,53.25
2022-12-11T22:11:27.727Z,49.00
2022-12-11T22:13:54.165Z,63.75
2022-12-11T22:16:20.873Z,56.00
2022-12-11T22:18:47.477Z,53.75
2022-12-11T22:21:14.441Z,59.25
2022-12-11T22:23:41.619Z,65.00
2022-12-11T22:26:08.756Z,67.25
2022-12-11T22:28:35.385Z,51.50
2022-12-11T22:31:01.830Z,63.00
2022-12-11T22:33:28.368Z,53.75
2022-12-11T22:35:55.801Z,65.75
2022-12-11T22:38:22.245Z,43.75
2022-12-11T22:40:48.671Z,42.00
2022-12-11T22:43:15.169Z,58.75
2022-12-11T22:45:41.645Z,53.00
2022-12-11T22:48:08.825Z,59.00
2022-12-11T22:50:36.663Z,41.75
2022-12-11T22:53:03.337Z,54.25
2022-12-11T22:55:29.863Z,26.50
2022-12-11T22:57:56.380Z,43.00
2022-12-11T23:00:23.580Z,39.25
2022-12-11T23:02:50.100Z,53.75
2022-12-11T23:05:16.780Z,33.50
2022-12-11T23:07:43.399Z,36.50
2022-12-11T23:10:10.428Z,39.50
2022-12-11T23:12:36.822Z,63.00
2022-12-11T23:15:03.631Z,47.00
2022-12-11T23:17:30.240Z,50.00
2022-12-11T23:19:56.825Z,41.50
2022-12-11T23:22:23.208Z,41.25
2022-12-11T23:24:49.568Z,54.25
2022-12-11T23:27:15.941Z,42.75
2022-12-11T23:29:43.127Z,43.00
2022-12-11T23:32:09.488Z,49.50
2022-12-11T23:34:35.865Z,39.75
2022-12-11T23:37:02.395Z,30.75
2022-12-11T23:39:29.148Z,54.75
2022-12-11T23:41:55.522Z,47.75
2022-12-11T23:44:22.647Z,45.00
2022-12-11T23:46:49.073Z,37.25
2022-12-11T23:49:15.499Z,43.00
2022-12-11T23:51:41.915Z,51.50
2022-12-11T23:54:08.377Z,46.25
2022-12-11T23:56:34.981Z,43.25
2022-12-11T23:59:01.349Z,38.75
